Time;durP1;ratioP1;P1;durP2;ratioP2;P2;SDS_P1;SDS_P2;PMS_P1;PMS_P2;Temp;Humidity;BMP_temperature;BMP_pressure;BME280_temperature;BME280_humidity;BME280_pressure;Samples;Min_cycle;Max_cycle;Signal;HPM_P1;HPM_P2
2021/08/29 00:00:05;;;;;;;2.22;1.75;;;;;;;;;;4970642;28;20051;-71
2021/08/29 00:02:33;;;;;;;1.88;1.58;;;;;;;;;;4969738;28;20085;-71
2021/08/29 00:05:02;;;;;;;2.58;1.60;;;;;;;;;;4970095;28;20069;-71
2021/08/29 00:07:31;;;;;;;3.22;2.00;;;;;;;;;;4969896;28;20069;-71
2021/08/29 00:09:59;;;;;;;1.67;1.20;;;;;;;;;;4969742;28;20454;-71
2021/08/29 00:12:28;;;;;;;2.78;1.67;;;;;;;;;;4969875;28;20517;-71
2021/08/29 00:14:57;;;;;;;3.70;1.83;;;;;;;;;;4970150;28;20051;-71
2021/08/29 00:17:25;;;;;;;1.83;1.60;;;;;;;;;;4970034;28;20046;-71
2021/08/29 00:19:54;;;;;;;3.15;1.77;;;;;;;;;;4970453;28;20126;-71
2021/08/29 00:22:22;;;;;;;2.20;1.63;;;;;;;;;;4970006;28;20057;-71
2021/08/29 00:24:50;;;;;;;2.28;1.67;;;;;;;;;;4970084;28;20140;-71
2021/08/29 00:27:18;;;;;;;2.42;1.70;;;;;;;;;;4969795;28;20165;-71
2021/08/29 00:29:48;;;;;;;2.35;1.65;;;;;;;;;;4969658;28;20055;-71
2021/08/29 00:32:16;;;;;;;3.05;1.58;;;;;;;;;;4970441;28;20055;-71
2021/08/29 00:34:44;;;;;;;3.05;1.52;;;;;;;;;;4970173;28;20045;-71
2021/08/29 00:37:13;;;;;;;2.45;1.50;;;;;;;;;;4964600;28;20462;-71
2021/08/29 00:39:42;;;;;;;2.65;1.45;;;;;;;;;;4972414;28;20101;-72
2021/08/29 00:42:10;;;;;;;2.50;1.73;;;;;;;;;;4973122;28;20086;-71
2021/08/29 00:44:39;;;;;;;2.08;1.58;;;;;;;;;;4973333;28;20513;-72
2021/08/29 00:47:09;;;;;;;4.53;1.60;;;;;;;;;;4973980;28;20047;-71
2021/08/29 00:49:38;;;;;;;2.72;1.40;;;;;;;;;;4970147;28;20055;-71
2021/08/29 00:52:06;;;;;;;2.50;1.67;;;;;;;;;;4970393;28;20050;-71
2021/08/29 00:54:35;;;;;;;2.67;1.60;;;;;;;;;;4968445;28;20138;-71
2021/08/29 00:57:04;;;;;;;2.92;1.80;;;;;;;;;;4967446;28;20403;-71
2021/08/29 00:59:33;;;;;;;1.80;1.20;;;;;;;;;;4973368;28;20147;-71
2021/08/29 01:02:04;;;;;;;2.72;1.45;;;;;;;;;;4993677;23;20050;-66
2021/08/29 01:04:36;;;;;;;2.90;1.33;;;;;;;;;;4973276;28;20141;-66
2021/08/29 01:07:06;;;;;;;5.32;1.60;;;;;;;;;;4975596;28;20077;-65
2021/08/29 01:09:35;;;;;;;2.28;1.45;;;;;;;;;;4974988;28;20079;-65
2021/08/29 01:12:05;;;;;;;1.63;1.38;;;;;;;;;;4973720;28;20057;-65
2021/08/29 01:14:33;;;;;;;2.20;1.52;;;;;;;;;;4967910;28;20147;-65
2021/08/29 01:17:03;;;;;;;3.90;1.90;;;;;;;;;;4975671;28;20388;-66
2021/08/29 01:19:41;;;;;;;2.00;1.35;;;;;;;;;;4956869;28;20043;-65
2021/08/29 01:22:11;;;;;;;2.65;1.35;;;;;;;;;;4966044;28;20054;-65
2021/08/29 01:24:40;;;;;;;2.42;1.58;;;;;;;;;;4972412;28;20425;-65
2021/08/29 01:27:12;;;;;;;2.40;1.50;;;;;;;;;;4975709;28;20153;-66
2021/08/29 01:29:42;;;;;;;2.40;1.50;;;;;;;;;;4975133;28;20134;-65
2021/08/29 01:32:10;;;;;;;2.92;1.70;;;;;;;;;;4974366;28;20141;-65
2021/08/29 01:34:39;;;;;;;2.55;1.30;;;;;;;;;;4974404;28;20057;-65
2021/08/29 01:37:07;;;;;;;3.47;1.70;;;;;;;;;;4955421;28;20074;-65
2021/08/29 01:39:35;;;;;;;2.53;1.70;;;;;;;;;;4975205;28;20137;-65
2021/08/29 01:42:04;;;;;;;2.63;1.55;;;;;;;;;;4974530;28;20051;-65
2021/08/29 01:44:32;;;;;;;3.03;2.08;;;;;;;;;;4971262;28;20119;-66
2021/08/29 01:47:02;;;;;;;2.70;1.52;;;;;;;;;;4974791;28;20487;-65
2021/08/29 01:49:32;;;;;;;3.17;1.60;;;;;;;;;;4974575;28;20570;-65
2021/08/29 01:52:00;;;;;;;2.80;1.67;;;;;;;;;;4974241;28;20123;-65
2021/08/29 01:54:28;;;;;;;2.60;1.80;;;;;;;;;;4974323;28;20047;-65
2021/08/29 01:57:03;;;;;;;2.08;1.25;;;;;;;;;;4968869;28;20071;-65
2021/08/29 01:59:32;;;;;;;2.58;1.60;;;;;;;;;;4975753;28;20118;-66
2021/08/29 02:02:02;;;;;;;2.10;1.48;;;;;;;;;;4974512;28;20500;-65
2021/08/29 02:04:30;;;;;;;2.58;1.70;;;;;;;;;;4973598;28;20063;-66
2021/08/29 02:07:06;;;;;;;2.03;1.50;;;;;;;;;;4974300;28;20050;-65
2021/08/29 02:09:35;;;;;;;2.63;1.45;;;;;;;;;;4975797;28;20069;-65
2021/08/29 02:12:04;;;;;;;2.28;1.50;;;;;;;;;;4974814;28;20043;-65
2021/08/29 02:14:34;;;;;;;3.30;1.90;;;;;;;;;;4975083;28;20054;-65
2021/08/29 02:17:04;;;;;;;1.65;1.30;;;;;;;;;;4973482;28;20051;-63
2021/08/29 02:19:34;;;;;;;1.63;1.35;;;;;;;;;;4967496;28;20517;-64
2021/08/29 02:22:03;;;;;;;2.30;1.80;;;;;;;;;;4974500;28;20134;-63
2021/08/29 02:24:31;;;;;;;2.83;1.60;;;;;;;;;;4974524;28;20106;-64
2021/08/29 02:27:00;;;;;;;2.55;1.50;;;;;;;;;;4973997;28;20061;-63
2021/08/29 02:29:28;;;;;;;2.53;1.50;;;;;;;;;;4975819;28;20142;-63
2021/08/29 02:31:56;;;;;;;1.73;1.30;;;;;;;;;;4974578;28;20141;-63
2021/08/29 02:34:26;;;;;;;2.35;1.35;;;;;;;;;;4974769;28;20562;-63
2021/08/29 02:36:55;;;;;;;2.17;1.40;;;;;;;;;;4975580;28;20081;-63
2021/08/29 02:39:23;;;;;;;2.00;1.38;;;;;;;;;;4974349;28;20055;-63
2021/08/29 02:41:52;;;;;;;2.72;1.58;;;;;;;;;;4973686;28;20046;-63
2021/08/29 02:44:21;;;;;;;3.45;1.60;;;;;;;;;;4973527;28;20061;-63
2021/08/29 02:46:49;;;;;;;2.88;1.40;;;;;;;;;;4974479;28;20129;-63
2021/08/29 02:49:20;;;;;;;2.60;1.45;;;;;;;;;;4975113;28;20137;-63
2021/08/29 02:51:50;;;;;;;2.03;1.38;;;;;;;;;;4973834;28;20134;-63
2021/08/29 02:54:19;;;;;;;1.63;1.20;;;;;;;;;;4973728;28;20046;-63
2021/08/29 02:56:48;;;;;;;1.52;1.23;;;;;;;;;;4967535;28;20039;-63
2021/08/29 02:59:17;;;;;;;2.95;1.13;;;;;;;;;;4955122;29;20070;-63
2021/08/29 03:01:45;;;;;;;1.58;0.93;;;;;;;;;;4966860;28;20047;-63
2021/08/29 03:04:14;;;;;;;1.70;1.15;;;;;;;;;;4973263;28;20061;-63
2021/08/29 03:06:42;;;;;;;1.75;1.33;;;;;;;;;;4973132;28;20046;-63
2021/08/29 03:09:12;;;;;;;2.08;1.60;;;;;;;;;;4974580;28;20047;-63
2021/08/29 03:11:40;;;;;;;1.60;1.15;;;;;;;;;;4974276;28;20092;-63
2021/08/29 03:14:09;;;;;;;1.45;1.27;;;;;;;;;;4973203;28;20146;-63
2021/08/29 03:16:37;;;;;;;1.67;1.35;;;;;;;;;;4974606;28;20097;-63
2021/08/29 03:19:06;;;;;;;2.35;1.50;;;;;;;;;;4972571;28;20046;-63
2021/08/29 03:21:34;;;;;;;2.13;1.15;;;;;;;;;;4973756;28;20073;-63
2021/08/29 03:24:02;;;;;;;3.33;1.25;;;;;;;;;;4972156;28;20055;-63
2021/08/29 03:26:43;;;;;;;1.55;1.07;;;;;;;;;;3017896;28;10001660;-63
2021/08/29 03:29:12;;;;;;;1.90;1.20;;;;;;;;;;2912457;28;10002206;-63
2021/08/29 03:31:40;;;;;;;2.50;1.65;;;;;;;;;;4961819;28;20457;-63
2021/08/29 03:34:13;;;;;;;1.65;1.23;;;;;;;;;;4970064;28;20113;-63
2021/08/29 03:36:43;;;;;;;5.05;1.60;;;;;;;;;;4973980;28;20049;-63
2021/08/29 03:39:12;;;;;;;1.85;1.20;;;;;;;;;;4972265;28;20138;-63
2021/08/29 03:41:40;;;;;;;2.15;1.35;;;;;;;;;;4954516;29;20043;-63
2021/08/29 03:44:11;;;;;;;2.10;1.27;;;;;;;;;;4970973;28;20058;-63
2021/08/29 03:46:40;;;;;;;2.95;1.38;;;;;;;;;;4972976;28;20039;-63
2021/08/29 03:49:09;;;;;;;3.85;1.33;;;;;;;;;;4973558;28;20062;-63
2021/08/29 03:51:37;;;;;;;2.65;1.50;;;;;;;;;;4973577;28;20130;-63
2021/08/29 03:54:07;;;;;;;2.38;1.60;;;;;;;;;;4970280;28;20146;-63
2021/08/29 03:56:35;;;;;;;3.03;1.40;;;;;;;;;;4971886;28;20063;-63
2021/08/29 03:59:04;;;;;;;5.25;1.70;;;;;;;;;;4961855;28;20055;-63
2021/08/29 04:01:34;;;;;;;3.63;1.77;;;;;;;;;;4975999;28;20043;-63
2021/08/29 04:04:02;;;;;;;3.10;1.75;;;;;;;;;;4972305;28;20058;-64
2021/08/29 04:06:33;;;;;;;3.90;1.90;;;;;;;;;;4972829;28;20150;-63
2021/08/29 04:09:04;;;;;;;3.53;1.95;;;;;;;;;;4973461;28;20049;-66
2021/08/29 04:11:33;;;;;;;2.53;1.30;;;;;;;;;;4973454;28;20057;-65
2021/08/29 04:14:02;;;;;;;3.88;1.67;;;;;;;;;;4972893;28;20135;-65
2021/08/29 04:16:31;;;;;;;3.35;2.00;;;;;;;;;;4971441;28;20126;-65
2021/08/29 04:19:00;;;;;;;4.45;1.90;;;;;;;;;;4972700;28;20068;-65
2021/08/29 04:21:29;;;;;;;2.45;1.60;;;;;;;;;;4972901;28;20042;-65
2021/08/29 04:23:58;;;;;;;3.95;1.73;;;;;;;;;;4972023;28;20402;-65
2021/08/29 04:26:26;;;;;;;4.90;2.17;;;;;;;;;;4973077;28;20051;-66
2021/08/29 04:28:55;;;;;;;5.45;2.35;;;;;;;;;;4973341;28;20507;-65
2021/08/29 04:31:24;;;;;;;7.85;2.10;;;;;;;;;;4972179;28;20054;-65
2021/08/29 04:33:54;;;;;;;4.75;2.00;;;;;;;;;;4975697;28;20512;-65
2021/08/29 04:36:23;;;;;;;4.72;2.13;;;;;;;;;;4975572;28;20050;-65
2021/08/29 04:38:51;;;;;;;4.65;2.78;;;;;;;;;;4976147;28;20558;-65
2021/08/29 04:41:21;;;;;;;4.07;2.08;;;;;;;;;;4976073;28;20046;-65
2021/08/29 04:43:49;;;;;;;4.88;2.45;;;;;;;;;;4975482;28;20122;-65
2021/08/29 04:46:17;;;;;;;4.32;2.38;;;;;;;;;;4976125;28;20047;-65
2021/08/29 04:48:46;;;;;;;5.00;2.70;;;;;;;;;;4976526;28;20529;-65
2021/08/29 04:51:14;;;;;;;4.90;2.72;;;;;;;;;;4975689;28;20551;-65
2021/08/29 04:53:43;;;;;;;5.88;3.00;;;;;;;;;;4971780;28;20046;-65
2021/08/29 04:56:12;;;;;;;4.05;2.60;;;;;;;;;;4975374;28;20057;-65
2021/08/29 04:58:40;;;;;;;5.10;3.03;;;;;;;;;;4973145;28;20125;-65
2021/08/29 05:01:08;;;;;;;6.70;2.92;;;;;;;;;;4976491;28;20498;-65
2021/08/29 05:03:37;;;;;;;3.53;2.30;;;;;;;;;;4959341;28;20211;-65
2021/08/29 05:06:05;;;;;;;4.85;2.60;;;;;;;;;;4966173;28;20046;-66
2021/08/29 05:08:33;;;;;;;6.78;3.33;;;;;;;;;;4974240;28;20047;-65
2021/08/29 05:11:03;;;;;;;7.18;2.88;;;;;;;;;;4973852;28;20377;-66
2021/08/29 05:13:31;;;;;;;7.03;3.40;;;;;;;;;;4973991;28;20149;-65
2021/08/29 05:16:00;;;;;;;6.22;3.28;;;;;;;;;;4974180;28;20559;-65
2021/08/29 05:18:28;;;;;;;4.78;2.90;;;;;;;;;;4975372;28;20503;-66
2021/08/29 05:20:57;;;;;;;7.03;3.33;;;;;;;;;;4974108;28;20090;-65
2021/08/29 05:23:33;;;;;;;6.50;3.58;;;;;;;;;;4973885;28;20166;-65
2021/08/29 05:26:01;;;;;;;6.10;3.35;;;;;;;;;;4975440;28;20053;-64
2021/08/29 05:28:31;;;;;;;6.93;3.80;;;;;;;;;;4975660;28;20049;-65
2021/08/29 05:30:59;;;;;;;9.15;3.10;;;;;;;;;;4975728;28;20064;-64
2021/08/29 05:33:27;;;;;;;6.90;3.55;;;;;;;;;;4974716;28;20059;-64
2021/08/29 05:35:56;;;;;;;5.65;3.55;;;;;;;;;;4972422;28;20119;-65
2021/08/29 05:38:24;;;;;;;7.72;3.90;;;;;;;;;;4971252;28;20051;-65
2021/08/29 05:40:52;;;;;;;6.10;3.35;;;;;;;;;;4971193;28;20055;-65
2021/08/29 05:43:21;;;;;;;8.90;4.18;;;;;;;;;;4970156;28;20042;-65
2021/08/29 05:45:50;;;;;;;6.25;3.50;;;;;;;;;;4970502;28;20423;-64
2021/08/29 05:48:18;;;;;;;7.07;3.40;;;;;;;;;;4963616;28;20065;-66
2021/08/29 05:50:47;;;;;;;7.38;3.53;;;;;;;;;;4971125;28;20053;-65
2021/08/29 05:53:15;;;;;;;7.65;3.78;;;;;;;;;;4968447;28;20055;-66
2021/08/29 05:55:43;;;;;;;8.43;4.10;;;;;;;;;;4971521;28;20051;-66
2021/08/29 05:58:11;;;;;;;7.55;3.75;;;;;;;;;;4967564;28;20489;-65
2021/08/29 06:00:40;;;;;;;9.52;4.30;;;;;;;;;;4971545;28;20612;-65
2021/08/29 06:03:10;;;;;;;9.75;4.53;;;;;;;;;;4971545;28;20117;-65
2021/08/29 06:05:38;;;;;;;10.32;4.50;;;;;;;;;;4971611;28;20049;-65
2021/08/29 06:08:06;;;;;;;7.18;4.13;;;;;;;;;;4970257;28;20078;-65
2021/08/29 06:10:35;;;;;;;8.50;3.95;;;;;;;;;;4970669;28;20137;-65
2021/08/29 06:13:03;;;;;;;9.00;4.25;;;;;;;;;;4969626;28;20059;-66
2021/08/29 06:15:31;;;;;;;10.57;4.43;;;;;;;;;;4969540;28;20883;-65
2021/08/29 06:17:59;;;;;;;6.35;3.78;;;;;;;;;;4969408;28;20631;-65
2021/08/29 06:20:29;;;;;;;7.82;4.63;;;;;;;;;;4970392;28;20586;-65
2021/08/29 06:22:57;;;;;;;8.75;4.63;;;;;;;;;;4967226;28;20054;-66
2021/08/29 06:25:26;;;;;;;8.88;4.65;;;;;;;;;;4970046;28;20055;-65
2021/08/29 06:27:54;;;;;;;12.18;4.85;;;;;;;;;;4971835;28;20050;-65
2021/08/29 06:30:22;;;;;;;7.57;4.13;;;;;;;;;;4962028;28;20050;-65
2021/08/29 06:32:50;;;;;;;9.77;4.72;;;;;;;;;;4959650;28;20392;-66
2021/08/29 06:35:19;;;;;;;9.82;4.32;;;;;;;;;;4964929;28;20065;-65
2021/08/29 06:37:49;;;;;;;7.80;4.13;;;;;;;;;;4961209;28;20360;-66
2021/08/29 06:40:17;;;;;;;7.63;3.85;;;;;;;;;;4963839;28;20088;-67
2021/08/29 06:42:45;;;;;;;8.30;4.22;;;;;;;;;;4966515;28;20096;-65
2021/08/29 06:45:13;;;;;;;10.00;5.28;;;;;;;;;;4963074;28;20572;-66
2021/08/29 06:47:42;;;;;;;8.68;4.43;;;;;;;;;;4963729;28;20225;-66
2021/08/29 06:50:11;;;;;;;8.13;4.60;;;;;;;;;;4965579;28;20068;-65
2021/08/29 06:52:39;;;;;;;7.35;4.40;;;;;;;;;;4963607;28;20142;-65
2021/08/29 06:55:10;;;;;;;9.43;4.50;;;;;;;;;;4960746;28;20260;-66
2021/08/29 06:57:38;;;;;;;8.65;4.53;;;;;;;;;;4949696;28;20055;-66
2021/08/29 07:00:07;;;;;;;8.23;4.60;;;;;;;;;;4960413;28;20583;-66
2021/08/29 07:02:35;;;;;;;10.30;5.07;;;;;;;;;;4964144;28;20043;-64
2021/08/29 07:05:04;;;;;;;9.98;4.65;;;;;;;;;;4952990;28;20436;-63
2021/08/29 07:07:33;;;;;;;10.23;5.07;;;;;;;;;;4974465;28;20054;-63
2021/08/29 07:10:01;;;;;;;9.65;5.18;;;;;;;;;;4963174;28;20055;-63
2021/08/29 07:12:30;;;;;;;9.57;5.55;;;;;;;;;;4963224;28;20055;-63
2021/08/29 07:14:59;;;;;;;8.73;5.18;;;;;;;;;;4956618;28;20443;-63
2021/08/29 07:17:27;;;;;;;10.65;5.32;;;;;;;;;;4960901;28;20043;-63
2021/08/29 07:19:55;;;;;;;10.27;4.70;;;;;;;;;;4970818;28;20051;-63
2021/08/29 07:22:23;;;;;;;10.20;5.53;;;;;;;;;;4965805;28;20118;-63
2021/08/29 07:24:52;;;;;;;9.90;5.18;;;;;;;;;;4959721;28;20065;-64
2021/08/29 07:27:20;;;;;;;9.52;5.10;;;;;;;;;;4959384;28;20533;-64
2021/08/29 07:29:49;;;;;;;9.63;4.40;;;;;;;;;;4964340;28;20046;-64
2021/08/29 07:32:18;;;;;;;8.13;4.63;;;;;;;;;;4966907;28;20165;-64
2021/08/29 07:34:46;;;;;;;8.57;4.68;;;;;;;;;;4963208;28;20043;-64
2021/08/29 07:37:14;;;;;;;8.82;4.43;;;;;;;;;;4961581;28;20415;-63
2021/08/29 07:39:42;;;;;;;10.80;5.18;;;;;;;;;;4961217;28;20066;-63
2021/08/29 07:42:11;;;;;;;9.27;5.10;;;;;;;;;;4968512;28;20455;-64
2021/08/29 07:44:39;;;;;;;6.90;4.13;;;;;;;;;;4958486;28;20105;-64
2021/08/29 07:47:09;;;;;;;7.75;4.93;;;;;;;;;;4962531;28;20423;-63
2021/08/29 07:49:37;;;;;;;7.55;4.38;;;;;;;;;;4965543;28;20051;-64
2021/08/29 07:52:05;;;;;;;10.13;4.30;;;;;;;;;;4957556;28;20342;-64
2021/08/29 07:54:34;;;;;;;9.43;4.20;;;;;;;;;;4960550;28;20504;-65
2021/08/29 07:57:02;;;;;;;8.85;4.28;;;;;;;;;;4960412;28;20039;-64
2021/08/29 07:59:30;;;;;;;8.40;4.03;;;;;;;;;;4964907;28;20043;-64
2021/08/29 08:01:59;;;;;;;5.28;3.55;;;;;;;;;;4962026;28;20063;-64
2021/08/29 08:04:28;;;;;;;5.75;3.65;;;;;;;;;;4955420;28;20102;-64
2021/08/29 08:06:57;;;;;;;6.07;3.38;;;;;;;;;;4964980;28;20047;-64
2021/08/29 08:09:25;;;;;;;5.00;3.50;;;;;;;;;;4957773;28;20118;-64
2021/08/29 08:11:53;;;;;;;6.05;3.70;;;;;;;;;;4968434;28;20146;-64
2021/08/29 08:14:21;;;;;;;6.10;3.20;;;;;;;;;;4968525;28;20069;-64
2021/08/29 08:16:50;;;;;;;7.40;3.35;;;;;;;;;;4964421;28;20054;-65
2021/08/29 08:19:18;;;;;;;5.22;3.15;;;;;;;;;;4968654;28;20089;-65
2021/08/29 08:21:47;;;;;;;4.47;2.80;;;;;;;;;;4970499;28;20046;-66
2021/08/29 08:24:16;;;;;;;5.10;3.20;;;;;;;;;;4966417;28;20051;-65
2021/08/29 08:26:44;;;;;;;5.00;3.25;;;;;;;;;;4968098;28;20077;-65
2021/08/29 08:29:12;;;;;;;6.82;3.13;;;;;;;;;;4968016;28;20089;-65
2021/08/29 08:31:40;;;;;;;5.82;2.45;;;;;;;;;;4965393;28;20126;-65
2021/08/29 08:34:09;;;;;;;5.20;2.80;;;;;;;;;;4966013;28;20082;-65
2021/08/29 08:36:37;;;;;;;5.05;3.20;;;;;;;;;;4967524;28;20054;-65
2021/08/29 08:39:07;;;;;;;7.55;2.90;;;;;;;;;;4966852;28;20047;-65
2021/08/29 08:41:35;;;;;;;5.22;3.22;;;;;;;;;;4966163;28;20516;-64
2021/08/29 08:44:03;;;;;;;4.40;2.97;;;;;;;;;;4968974;28;20054;-64
2021/08/29 08:46:32;;;;;;;3.78;2.55;;;;;;;;;;4965050;28;20514;-64
2021/08/29 08:49:02;;;;;;;3.70;2.67;;;;;;;;;;4968907;28;20086;-65
2021/08/29 08:51:31;;;;;;;5.90;3.03;;;;;;;;;;4968773;28;20082;-64
2021/08/29 08:54:01;;;;;;;3.92;2.17;;;;;;;;;;4973781;28;20137;-64
2021/08/29 08:56:35;;;;;;;4.45;2.40;;;;;;;;;;4964211;28;20047;-66
2021/08/29 08:59:05;;;;;;;5.13;2.53;;;;;;;;;;4968766;28;20053;-66
2021/08/29 09:01:33;;;;;;;4.07;2.67;;;;;;;;;;4959139;28;20137;-66
2021/08/29 09:04:02;;;;;;;4.22;2.88;;;;;;;;;;4966386;28;20420;-65
2021/08/29 09:06:34;;;;;;;4.13;2.55;;;;;;;;;;4965349;28;20109;-65
2021/08/29 09:09:03;;;;;;;4.75;2.70;;;;;;;;;;4953101;28;20515;-65
2021/08/29 09:11:42;;;;;;;3.25;2.20;;;;;;;;;;4967116;28;20046;-65
2021/08/29 09:14:10;;;;;;;4.00;2.65;;;;;;;;;;4961726;28;20102;-66
2021/08/29 09:16:38;;;;;;;3.60;2.28;;;;;;;;;;4970265;28;20133;-65
2021/08/29 09:19:08;;;;;;;5.00;2.58;;;;;;;;;;4960560;28;20339;-64
2021/08/29 09:21:38;;;;;;;4.78;2.58;;;;;;;;;;4962439;28;20047;-65
2021/08/29 09:24:09;;;;;;;3.60;2.47;;;;;;;;;;4967938;28;20051;-64
2021/08/29 09:26:42;;;;;;;3.72;2.53;;;;;;;;;;4967673;28;20482;-65
2021/08/29 09:29:21;;;;;;;5.88;3.35;;;;;;;;;;4961452;28;20072;-64
2021/08/29 09:31:50;;;;;;;4.88;2.95;;;;;;;;;;4960744;28;20547;-65
2021/08/29 09:34:21;;;;;;;3.25;2.40;;;;;;;;;;4965200;28;20546;-65
2021/08/29 09:36:51;;;;;;;4.90;2.70;;;;;;;;;;4966646;28;20093;-65
2021/08/29 09:39:20;;;;;;;8.32;3.47;;;;;;;;;;4963859;28;20287;-66
2021/08/29 09:41:50;;;;;;;6.00;3.08;;;;;;;;;;4965223;28;20071;-65
2021/08/29 09:44:20;;;;;;;6.05;3.42;;;;;;;;;;4959587;28;20051;-66
2021/08/29 09:46:52;;;;;;;6.00;3.30;;;;;;;;;;4963217;28;20054;-66
2021/08/29 09:49:28;;;;;;;7.10;3.55;;;;;;;;;;4964521;28;20054;-66
2021/08/29 09:52:00;;;;;;;8.38;3.78;;;;;;;;;;4958706;28;20238;-65
2021/08/29 09:54:32;;;;;;;6.00;3.88;;;;;;;;;;4972182;28;20059;-68
2021/08/29 09:57:06;;;;;;;7.85;3.58;;;;;;;;;;4961405;28;20055;-66
2021/08/29 09:59:41;;;;;;;4.90;3.50;;;;;;;;;;4964786;28;20055;-67
2021/08/29 10:02:11;;;;;;;7.13;3.42;;;;;;;;;;4960984;28;20404;-66
2021/08/29 10:04:41;;;;;;;5.50;3.47;;;;;;;;;;4965433;28;20476;-65
2021/08/29 10:07:11;;;;;;;5.97;4.18;;;;;;;;;;4963054;28;20055;-65
2021/08/29 10:09:40;;;;;;;7.50;3.83;;;;;;;;;;4964826;28;20047;-66
2021/08/29 10:12:10;;;;;;;7.63;4.07;;;;;;;;;;4963676;28;20046;-64
2021/08/29 10:14:40;;;;;;;7.78;3.58;;;;;;;;;;4966855;28;20139;-65
2021/08/29 10:17:10;;;;;;;6.20;3.58;;;;;;;;;;4969194;28;20102;-65
2021/08/29 10:19:40;;;;;;;7.38;4.18;;;;;;;;;;4959358;28;20055;-64
2021/08/29 10:22:09;;;;;;;6.05;3.78;;;;;;;;;;4969578;28;20137;-64
2021/08/29 10:24:37;;;;;;;5.82;3.92;;;;;;;;;;4968030;28;20482;-64
2021/08/29 10:27:07;;;;;;;5.55;3.50;;;;;;;;;;4962057;28;20070;-65
2021/08/29 10:29:45;;;;;;;5.53;3.35;;;;;;;;;;4962283;28;20475;-65
2021/08/29 10:32:18;;;;;;;4.93;3.20;;;;;;;;;;4965865;28;20046;-65
2021/08/29 10:34:47;;;;;;;5.93;3.67;;;;;;;;;;4961151;28;20047;-65
2021/08/29 10:37:15;;;;;;;5.82;3.25;;;;;;;;;;4962676;28;20129;-64
2021/08/29 10:39:45;;;;;;;5.65;3.47;;;;;;;;;;4962948;28;20131;-64
2021/08/29 10:42:15;;;;;;;5.63;3.30;;;;;;;;;;4964166;28;20130;-65
2021/08/29 10:44:45;;;;;;;5.78;2.83;;;;;;;;;;4965899;28;20046;-64
2021/08/29 10:47:13;;;;;;;4.45;2.92;;;;;;;;;;4963781;28;20059;-65
2021/08/29 10:49:43;;;;;;;7.13;3.55;;;;;;;;;;4961721;28;20042;-65
2021/08/29 10:52:12;;;;;;;4.80;3.20;;;;;;;;;;4967346;28;20495;-67
2021/08/29 10:54:51;;;;;;;5.07;3.22;;;;;;;;;;4967650;28;20136;-66
2021/08/29 10:57:30;;;;;;;4.90;2.70;;;;;;;;;;4963977;28;20101;-65
2021/08/29 11:00:04;;;;;;;2.92;2.22;;;;;;;;;;4967723;28;20086;-64
2021/08/29 11:02:37;;;;;;;3.70;2.45;;;;;;;;;;4960839;28;20063;-65
2021/08/29 11:05:07;;;;;;;5.00;2.53;;;;;;;;;;4957706;28;20105;-65
2021/08/29 11:07:40;;;;;;;3.78;2.38;;;;;;;;;;4962547;28;20451;-64
2021/08/29 11:10:10;;;;;;;3.72;2.25;;;;;;;;;;4965945;28;20686;-63
2021/08/29 11:12:39;;;;;;;3.60;2.30;;;;;;;;;;4961538;28;20054;-63
2021/08/29 11:15:10;;;;;;;3.83;2.13;;;;;;;;;;4962357;28;20421;-64
2021/08/29 11:17:39;;;;;;;3.85;2.17;;;;;;;;;;4967276;28;20078;-65
2021/08/29 11:20:13;;;;;;;3.13;2.17;;;;;;;;;;4965539;28;20432;-65
2021/08/29 11:22:42;;;;;;;2.95;1.95;;;;;;;;;;4960079;28;20051;-65
2021/08/29 11:25:15;;;;;;;4.72;1.70;;;;;;;;;;4958790;28;20106;-64
2021/08/29 11:27:57;;;;;;;2.55;1.80;;;;;;;;;;4969288;28;20050;-65
2021/08/29 11:30:29;;;;;;;5.88;2.08;;;;;;;;;;4959339;28;20134;-65
2021/08/29 11:33:02;;;;;;;2.50;1.80;;;;;;;;;;4966132;28;20512;-65
2021/08/29 11:35:33;;;;;;;3.80;2.13;;;;;;;;;;4961709;28;20356;-65
2021/08/29 11:38:03;;;;;;;2.42;1.83;;;;;;;;;;4965356;28;20049;-64
2021/08/29 11:41:02;;;;;;;2.30;1.05;;;;;;;;;;4957421;28;20484;-65
2021/08/29 11:43:33;;;;;;;2.03;1.30;;;;;;;;;;4963863;28;20134;-65
2021/08/29 11:46:08;;;;;;;2.08;1.15;;;;;;;;;;4967096;28;20122;-65
2021/08/29 11:48:37;;;;;;;2.00;1.33;;;;;;;;;;4970591;28;20055;-64
2021/08/29 11:51:06;;;;;;;2.17;1.30;;;;;;;;;;4961292;28;20052;-65
2021/08/29 11:53:45;;;;;;;3.30;1.42;;;;;;;;;;4977266;28;20078;-65
2021/08/29 11:56:17;;;;;;;1.70;1.00;;;;;;;;;;4972959;28;20058;-65
2021/08/29 11:58:47;;;;;;;2.13;1.50;;;;;;;;;;4955004;28;20106;-64
2021/08/29 12:01:17;;;;;;;2.67;1.30;;;;;;;;;;4961927;28;20419;-65
2021/08/29 12:03:46;;;;;;;2.13;1.33;;;;;;;;;;4960300;28;20051;-65
2021/08/29 12:06:18;;;;;;;4.20;1.27;;;;;;;;;;4968929;28;20479;-65
2021/08/29 12:08:53;;;;;;;1.67;1.15;;;;;;;;;;4965788;28;20090;-65
2021/08/29 12:11:22;;;;;;;2.42;1.33;;;;;;;;;;4965504;28;20043;-65
2021/08/29 12:13:52;;;;;;;1.95;1.00;;;;;;;;;;4962600;28;20043;-65
2021/08/29 12:16:22;;;;;;;3.03;1.67;;;;;;;;;;4967225;28;20054;-66
2021/08/29 12:18:51;;;;;;;3.30;1.60;;;;;;;;;;4963600;28;20122;-65
2021/08/29 12:21:22;;;;;;;2.33;1.27;;;;;;;;;;4968384;28;20054;-65
2021/08/29 12:23:50;;;;;;;2.28;1.50;;;;;;;;;;4960632;28;20049;-65
2021/08/29 12:26:22;;;;;;;2.55;1.23;;;;;;;;;;4960976;28;20480;-65
2021/08/29 12:29:01;;;;;;;2.88;1.58;;;;;;;;;;4959185;28;20050;-65
2021/08/29 12:31:36;;;;;;;1.95;1.40;;;;;;;;;;4957665;28;20047;-64
2021/08/29 12:34:04;;;;;;;;;;;;;;;;;;4965213;28;20057;-66
2021/08/29 12:36:33;;;;;;;1.15;1.02;;;;;;;;;;4961895;28;19922;-65
2021/08/29 12:39:02;;;;;;;2.38;1.48;;;;;;;;;;4966412;28;20051;-66
2021/08/29 12:41:31;;;;;;;4.85;1.60;;;;;;;;;;4962642;28;20093;-66
2021/08/29 12:44:06;;;;;;;3.15;1.75;;;;;;;;;;4972313;28;20082;-66
2021/08/29 12:46:40;;;;;;;6.28;1.60;;;;;;;;;;4970610;28;20468;-66
2021/08/29 12:49:09;;;;;;;2.30;1.60;;;;;;;;;;4966372;28;20430;-66
2021/08/29 12:51:38;;;;;;;2.17;1.52;;;;;;;;;;4963870;28;20055;-66
2021/08/29 12:54:07;;;;;;;4.50;1.30;;;;;;;;;;4975229;28;20055;-66
2021/08/29 12:56:36;;;;;;;4.35;1.50;;;;;;;;;;4962302;28;20043;-66
2021/08/29 12:59:05;;;;;;;2.97;1.60;;;;;;;;;;4970001;28;20073;-66
2021/08/29 13:01:33;;;;;;;2.67;1.60;;;;;;;;;;4970799;28;20043;-66
2021/08/29 13:04:04;;;;;;;3.08;1.52;;;;;;;;;;4965364;28;20047;-66
2021/08/29 13:06:34;;;;;;;2.53;1.35;;;;;;;;;;4967145;28;20047;-66
2021/08/29 13:09:08;;;;;;;2.83;1.55;;;;;;;;;;4971879;28;20073;-66
2021/08/29 13:11:45;;;;;;;2.33;1.70;;;;;;;;;;4973350;28;20055;-66
2021/08/29 13:14:28;;;;;;;2.10;1.30;;;;;;;;;;4974333;28;20135;-65
2021/08/29 13:16:57;;;;;;;1.98;1.50;;;;;;;;;;4971070;28;20047;-65
2021/08/29 13:19:27;;;;;;;2.10;1.60;;;;;;;;;;4973838;28;20061;-66
2021/08/29 13:21:59;;;;;;;2.03;1.52;;;;;;;;;;4973027;28;20043;-66
2021/08/29 13:24:29;;;;;;;3.42;1.60;;;;;;;;;;4968092;28;20050;-66
2021/08/29 13:26:58;;;;;;;1.98;1.27;;;;;;;;;;4967908;28;20060;-66
2021/08/29 13:29:37;;;;;;;2.30;1.58;;;;;;;;;;4970472;28;20130;-66
2021/08/29 13:32:06;;;;;;;2.92;1.50;;;;;;;;;;4969210;28;20069;-66
2021/08/29 13:34:36;;;;;;;2.53;1.50;;;;;;;;;;4964524;28;20124;-65
2021/08/29 13:37:06;;;;;;;1.63;1.30;;;;;;;;;;4971496;28;20118;-66
2021/08/29 13:39:34;;;;;;;3.33;1.67;;;;;;;;;;4967782;28;20146;-66
2021/08/29 13:42:21;;;;;;;1.95;1.42;;;;;;;;;;4972214;28;20046;-66
2021/08/29 13:44:53;;;;;;;2.15;1.23;;;;;;;;;;4968196;28;20054;-63
2021/08/29 13:47:22;;;;;;;1.80;1.40;;;;;;;;;;4967517;28;20050;-63
2021/08/29 13:49:53;;;;;;;2.00;1.48;;;;;;;;;;4952561;28;20506;-63
2021/08/29 13:52:23;;;;;;;2.35;1.45;;;;;;;;;;4958596;28;20055;-63
2021/08/29 13:54:52;;;;;;;2.22;1.35;;;;;;;;;;4963977;28;20053;-63
2021/08/29 13:57:20;;;;;;;1.80;1.40;;;;;;;;;;4960598;28;20051;-63
2021/08/29 13:59:49;;;;;;;2.45;1.38;;;;;;;;;;4966111;28;20054;-63
2021/08/29 14:02:18;;;;;;;2.03;1.50;;;;;;;;;;4952633;28;20110;-63
2021/08/29 14:04:46;;;;;;;1.90;1.30;;;;;;;;;;4960101;28;20105;-63
2021/08/29 14:07:17;;;;;;;1.90;1.30;;;;;;;;;;4970305;28;20046;-63
2021/08/29 14:09:46;;;;;;;2.35;1.10;;;;;;;;;;4968246;28;20042;-63
2021/08/29 14:12:14;;;;;;;3.83;1.20;;;;;;;;;;4971682;28;20664;-63
2021/08/29 14:14:43;;;;;;;1.40;1.02;;;;;;;;;;4970616;28;20435;-63
2021/08/29 14:17:12;;;;;;;2.33;1.20;;;;;;;;;;4967247;28;20090;-63
2021/08/29 14:19:41;;;;;;;2.05;1.30;;;;;;;;;;4958401;28;20058;-63
2021/08/29 14:22:10;;;;;;;4.10;1.25;;;;;;;;;;4957799;28;20044;-63
2021/08/29 14:24:40;;;;;;;1.63;1.20;;;;;;;;;;4956908;28;20061;-63
2021/08/29 14:27:09;;;;;;;6.32;1.45;;;;;;;;;;4962534;28;20063;-63
2021/08/29 14:29:38;;;;;;;2.17;0.93;;;;;;;;;;4953353;28;20055;-63
2021/08/29 14:32:07;;;;;;;1.20;1.00;;;;;;;;;;4962622;28;20460;-63
2021/08/29 14:34:36;;;;;;;1.35;0.90;;;;;;;;;;4961123;28;20082;-64
2021/08/29 14:37:05;;;;;;;1.60;1.08;;;;;;;;;;4953022;28;20062;-64
2021/08/29 14:39:34;;;;;;;2.90;1.13;;;;;;;;;;4964444;28;20042;-64
2021/08/29 14:42:05;;;;;;;2.53;0.90;;;;;;;;;;4959719;28;20571;-64
2021/08/29 14:44:34;;;;;;;1.70;1.00;;;;;;;;;;4952197;28;20528;-64
2021/08/29 14:47:03;;;;;;;1.30;0.60;;;;;;;;;;4960240;28;20520;-64
2021/08/29 14:49:35;;;;;;;1.08;0.70;;;;;;;;;;4967575;28;20503;-64
2021/08/29 14:52:03;;;;;;;0.80;0.70;;;;;;;;;;4965384;28;20117;-64
2021/08/29 14:54:32;;;;;;;1.30;0.85;;;;;;;;;;4957850;28;20412;-64
2021/08/29 14:57:01;;;;;;;2.13;0.80;;;;;;;;;;4958375;28;20059;-64